createdAt,value
2018-05-27T00:01:32.209Z,59.80
2018-05-27T00:03:58.486Z,59.70
2018-05-27T00:06:24.823Z,59.60
2018-05-27T00:08:52.017Z,60.20
2018-05-27T00:11:18.301Z,60.00
2018-05-27T00:13:44.960Z,60.10
2018-05-27T00:16:11.259Z,60.10
2018-05-27T00:18:37.724Z,60.10
2018-05-27T00:21:03.958Z,60.10
2018-05-27T00:23:30.168Z,60.00
2018-05-27T00:25:57.214Z,60.50
2018-05-27T00:28:23.600Z,60.50
2018-05-27T00:30:50.100Z,60.90
2018-05-27T00:33:17.143Z,61.10
2018-05-27T00:35:43.481Z,61.10
2018-05-27T00:38:09.749Z,61.50
2018-05-27T00:40:36.159Z,61.00
2018-05-27T00:43:02.510Z,61.30
2018-05-27T00:45:28.817Z,61.00
2018-05-27T00:47:55.334Z,61.00
2018-05-27T00:50:21.721Z,60.80
2018-05-27T00:52:48.131Z,61.00
2018-05-27T00:55:14.405Z,61.10
2018-05-27T00:57:40.655Z,61.00
2018-05-27T01:00:06.920Z,61.20
2018-05-27T01:02:33.160Z,61.40
2018-05-27T01:04:59.491Z,61.30
2018-05-27T01:07:25.769Z,61.30
2018-05-27T01:09:52.147Z,60.80
2018-05-27T01:12:18.982Z,61.30
2018-05-27T01:14:45.292Z,61.60
2018-05-27T01:17:12.291Z,61.50
2018-05-27T01:19:38.611Z,61.60
2018-05-27T01:22:04.920Z,62.00
2018-05-27T01:24:31.337Z,62.30
2018-05-27T01:26:57.627Z,62.70
2018-05-27T01:29:23.887Z,62.60
2018-05-27T01:31:50.298Z,62.60
2018-05-27T01:34:16.620Z,62.50
2018-05-27T01:36:43.298Z,62.60
2018-05-27T01:39:09.533Z,63.00
2018-05-27T01:41:35.878Z,62.60
2018-05-27T01:44:02.126Z,62.90
2018-05-27T01:46:28.408Z,64.10
2018-05-27T01:48:55.443Z,64.50
2018-05-27T01:51:21.787Z,64.40
2018-05-27T01:53:48.125Z,64.40
2018-05-27T01:56:15.752Z,64.90
2018-05-27T01:58:42.030Z,64.30
2018-05-27T02:01:09.041Z,64.40
2018-05-27T02:03:36.251Z,64.40
2018-05-27T02:06:02.577Z,64.40
2018-05-27T02:08:29.032Z,64.40
2018-05-27T02:10:55.401Z,64.10
2018-05-27T02:13:21.834Z,63.80
2018-05-27T02:15:48.340Z,63.80
2018-05-27T02:18:16.284Z,64.00
2018-05-27T02:20:42.981Z,64.10
2018-05-27T02:23:09.263Z,65.10
2018-05-27T02:25:35.597Z,65.00
2018-05-27T02:28:01.892Z,64.90
2018-05-27T02:30:28.159Z,65.30
2018-05-27T02:32:54.375Z,65.00
2018-05-27T02:35:20.703Z,65.00
2018-05-27T02:37:47.065Z,65.10
2018-05-27T02:40:13.470Z,65.10
2018-05-27T02:42:39.762Z,65.20
2018-05-27T02:45:06.040Z,65.30
2018-05-27T02:47:32.360Z,65.50
2018-05-27T02:49:58.609Z,65.70
2018-05-27T02:52:24.908Z,65.80
2018-05-27T02:54:51.163Z,66.20
2018-05-27T02:57:18.393Z,66.00
2018-05-27T02:59:44.793Z,66.00
2018-05-27T03:02:11.109Z,66.20
2018-05-27T03:04:37.561Z,66.20
2018-05-27T03:07:04.105Z,66.40
2018-05-27T03:09:30.410Z,66.90
2018-05-27T03:11:56.753Z,66.50
2018-05-27T03:14:23.092Z,66.60
2018-05-27T03:16:49.424Z,66.80
2018-05-27T03:19:15.851Z,66.60
2018-05-27T03:21:42.613Z,66.90
2018-05-27T03:24:08.921Z,66.90
2018-05-27T03:26:35.323Z,67.10
2018-05-27T03:29:01.597Z,66.60
2018-05-27T03:31:28.059Z,66.60
2018-05-27T03:33:54.552Z,66.30
2018-05-27T03:36:20.892Z,66.60
2018-05-27T03:38:47.242Z,66.60
2018-05-27T03:41:13.768Z,66.40
2018-05-27T03:43:40.193Z,67.20
2018-05-27T03:46:06.665Z,66.30
2018-05-27T03:48:32.935Z,66.00
2018-05-27T03:50:59.250Z,66.00
2018-05-27T03:53:25.609Z,65.60
2018-05-27T03:55:52.243Z,65.80
2018-05-27T03:58:18.599Z,65.50
2018-05-27T04:00:44.820Z,65.40
2018-05-27T04:03:11.133Z,65.10
2018-05-27T04:05:50.555Z,64.60
2018-05-27T04:08:29.340Z,64.60
2018-05-27T04:10:55.669Z,64.50
2018-05-27T04:13:21.977Z,64.10
2018-05-27T04:15:48.264Z,64.50
2018-05-27T04:18:15.442Z,64.30
2018-05-27T04:20:41.677Z,64.30
2018-05-27T04:23:07.945Z,63.90
2018-05-27T04:25:34.416Z,63.50
2018-05-27T04:28:00.697Z,63.10
2018-05-27T04:30:26.936Z,63.00
2018-05-27T04:32:53.321Z,62.30
2018-05-27T04:35:19.601Z,62.00
2018-05-27T04:37:45.835Z,61.80
2018-05-27T04:40:12.158Z,62.00
2018-05-27T04:42:38.607Z,61.40
2018-05-27T04:45:04.942Z,61.40
2018-05-27T04:47:31.151Z,60.90
2018-05-27T04:49:57.501Z,60.10
2018-05-27T04:52:23.770Z,60.20
2018-05-27T04:54:50.093Z,59.90
2018-05-27T04:57:18.672Z,59.50
2018-05-27T04:59:46.029Z,59.10
2018-05-27T05:02:12.331Z,58.20
2018-05-27T05:04:38.659Z,57.80
2018-05-27T05:07:04.972Z,57.30
2018-05-27T05:09:31.315Z,57.10
2018-05-27T05:11:57.522Z,57.00
2018-05-27T05:14:24.525Z,57.00
2018-05-27T05:16:50.759Z,57.00
2018-05-27T05:19:17.015Z,57.10
2018-05-27T05:21:43.257Z,56.80
2018-05-27T05:24:09.609Z,56.30
2018-05-27T05:26:35.935Z,56.20
2018-05-27T05:29:02.176Z,56.00
2018-05-27T05:31:28.446Z,56.50
2018-05-27T05:33:54.689Z,56.10
2018-05-27T05:36:20.960Z,55.80
2018-05-27T05:38:47.986Z,54.80
2018-05-27T05:41:14.234Z,54.80
2018-05-27T05:43:40.607Z,54.80
2018-05-27T05:46:07.597Z,54.50
2018-05-27T05:48:33.819Z,54.50
2018-05-27T05:51:00.192Z,54.20
2018-05-27T05:53:26.674Z,53.50
2018-05-27T05:55:53.063Z,53.80
2018-05-27T05:58:19.355Z,53.80
2018-05-27T06:00:45.596Z,53.80
2018-05-27T06:03:11.977Z,53.60
2018-05-27T06:05:39.086Z,54.00
2018-05-27T06:08:06.493Z,53.10
2018-05-27T06:10:32.863Z,53.10
2018-05-27T06:12:59.349Z,53.00
2018-05-27T06:15:25.723Z,52.60
2018-05-27T06:17:52.025Z,52.60
2018-05-27T06:20:18.242Z,52.50
2018-05-27T06:22:44.615Z,51.80
2018-05-27T06:25:14.401Z,51.90
2018-05-27T06:27:40.773Z,52.00
2018-05-27T06:30:07.185Z,51.90
2018-05-27T06:32:33.635Z,51.20
2018-05-27T06:35:00.629Z,51.20
2018-05-27T06:37:26.886Z,51.10
2018-05-27T06:39:53.109Z,50.40
2018-05-27T06:42:21.566Z,49.70
2018-05-27T06:44:47.850Z,49.50
2018-05-27T06:47:14.112Z,50.00
2018-05-27T06:49:40.371Z,49.60
2018-05-27T06:52:06.805Z,49.50
2018-05-27T06:54:33.032Z,48.70
2018-05-27T06:56:59.356Z,48.70
2018-05-27T06:59:25.590Z,48.70
2018-05-27T07:01:52.757Z,48.30
2018-05-27T07:04:19.367Z,47.90
2018-05-27T07:06:45.855Z,48.00
2018-05-27T07:09:12.285Z,47.80
2018-05-27T07:11:38.908Z,48.00
2018-05-27T07:14:05.444Z,47.30
2018-05-27T07:16:32.640Z,46.20
2018-05-27T07:18:59.255Z,46.20
2018-05-27T07:21:25.697Z,45.80
2018-05-27T07:23:52.364Z,46.20
2018-05-27T07:26:19.492Z,43.90
2018-05-27T07:28:46.121Z,43.80
2018-05-27T07:31:12.666Z,44.20
2018-05-27T07:33:39.065Z,44.20
2018-05-27T07:36:06.316Z,44.50
2018-05-27T07:38:32.939Z,44.40
2018-05-27T07:40:59.607Z,43.50
2018-05-27T07:43:26.220Z,42.50
2018-05-27T07:45:52.725Z,44.20
2018-05-27T07:50:50.598Z,42.70
2018-05-27T07:53:17.214Z,43.50
2018-05-27T07:55:43.981Z,43.00
2018-05-27T07:58:10.541Z,42.50
2018-05-27T08:00:37.786Z,42.30
2018-05-27T08:03:04.301Z,42.30
2018-05-27T08:05:30.718Z,42.90
2018-05-27T08:07:57.118Z,41.50
2018-05-27T08:10:23.546Z,41.70
2018-05-27T08:12:51.224Z,41.30
2018-05-27T08:15:17.639Z,40.60
2018-05-27T08:17:44.201Z,41.40
2018-05-27T08:20:35.468Z,41.70
2018-05-27T08:23:02.290Z,41.50
2018-05-27T08:25:28.691Z,40.20
2018-05-27T08:27:55.149Z,40.30
2018-05-27T08:30:21.833Z,39.90
2018-05-27T08:32:49.929Z,39.80
2018-05-27T08:35:17.052Z,39.50
2018-05-27T08:37:43.406Z,39.50
2018-05-27T08:40:09.686Z,38.90
2018-05-27T08:42:36.714Z,39.10
2018-05-27T08:45:02.980Z,39.00
2018-05-27T08:47:29.280Z,39.10
2018-05-27T08:49:55.560Z,38.50
2018-05-27T08:52:21.901Z,38.90
2018-05-27T08:54:49.234Z,38.00
2018-05-27T08:57:15.759Z,38.00
2018-05-27T08:59:42.008Z,38.60
2018-05-27T09:02:08.253Z,37.70
2018-05-27T09:04:34.504Z,37.10
2018-05-27T09:07:00.773Z,37.70
2018-05-27T09:09:27.071Z,37.90
2018-05-27T09:11:53.355Z,37.00
2018-05-27T09:14:19.638Z,37.80
2018-05-27T09:16:45.868Z,37.70
2018-05-27T09:19:12.262Z,37.40
2018-05-27T09:21:38.535Z,36.40
2018-05-27T09:24:04.856Z,36.40
2018-05-27T09:26:31.180Z,36.40
2018-05-27T09:28:57.434Z,36.40
2018-05-27T09:31:23.708Z,36.90
2018-05-27T09:33:50.030Z,36.60
2018-05-27T09:36:16.293Z,36.60
2018-05-27T09:38:42.524Z,36.80
2018-05-27T09:41:08.908Z,35.60
2018-05-27T09:43:35.312Z,34.70
2018-05-27T09:46:01.587Z,35.00
2018-05-27T09:48:27.857Z,35.00
2018-05-27T09:50:54.114Z,34.30
2018-05-27T09:53:20.349Z,34.00
2018-05-27T09:55:46.813Z,34.30
2018-05-27T09:58:13.093Z,33.20
2018-05-27T10:00:39.347Z,34.20
2018-05-27T10:03:05.643Z,34.00
2018-05-27T10:05:31.987Z,33.20
2018-05-27T10:07:58.269Z,33.20
2018-05-27T10:10:24.579Z,31.00
2018-05-27T10:12:50.883Z,31.00
2018-05-27T10:15:17.867Z,29.90
2018-05-27T10:17:44.181Z,29.90
2018-05-27T10:20:10.526Z,28.90
2018-05-27T10:22:36.877Z,29.90
2018-05-27T10:25:03.380Z,30.80
2018-05-27T10:27:29.607Z,28.10
2018-05-27T10:29:57.035Z,28.20
2018-05-27T10:32:23.401Z,27.40
2018-05-27T10:34:49.873Z,27.20
2018-05-27T10:37:16.129Z,27.50
2018-05-27T10:39:43.187Z,28.20
2018-05-27T10:42:11.466Z,28.20
2018-05-27T10:44:38.048Z,27.50
2018-05-27T10:47:04.382Z,27.00
2018-05-27T10:49:30.702Z,26.60
2018-05-27T10:51:56.959Z,26.00
2018-05-27T10:54:23.977Z,26.10
2018-05-27T10:56:50.333Z,26.20
2018-05-27T10:59:17.314Z,25.80
2018-05-27T11:01:43.590Z,25.80
2018-05-27T11:04:09.871Z,25.90
2018-05-27T11:06:36.187Z,25.20
2018-05-27T11:09:02.531Z,24.10
2018-05-27T11:11:29.212Z,24.70
2018-05-27T11:13:55.496Z,24.50
2018-05-27T11:16:21.899Z,24.70
2018-05-27T11:18:48.193Z,25.00
2018-05-27T11:21:14.521Z,24.40
2018-05-27T11:23:40.977Z,24.90
2018-05-27T11:26:07.399Z,24.20
2018-05-27T11:28:34.795Z,23.30
2018-05-27T11:31:01.192Z,23.30
2018-05-27T11:33:27.451Z,22.80
2018-05-27T11:35:54.837Z,22.70
2018-05-27T11:38:21.078Z,22.10
2018-05-27T11:40:49.319Z,22.80
2018-05-27T11:43:15.591Z,22.00
2018-05-27T11:45:41.841Z,21.00
2018-05-27T11:48:08.132Z,21.30
2018-05-27T11:50:34.647Z,21.50
2018-05-27T11:53:01.036Z,20.90
2018-05-27T11:55:27.334Z,20.40
2018-05-27T11:57:53.595Z,21.00
2018-05-27T12:00:20.603Z,21.00
2018-05-27T12:02:46.983Z,21.00
2018-05-27T12:05:13.271Z,21.10
2018-05-27T12:07:39.723Z,21.00
2018-05-27T12:10:05.998Z,21.60
2018-05-27T12:12:32.411Z,20.60
2018-05-27T12:14:58.669Z,20.10
2018-05-27T12:17:24.932Z,20.20
2018-05-27T12:19:51.200Z,20.10
2018-05-27T12:22:17.494Z,21.40
2018-05-27T12:24:47.593Z,21.40
2018-05-27T12:27:14.011Z,21.20
2018-05-27T12:29:40.350Z,21.20
2018-05-27T12:32:07.509Z,21.30
2018-05-27T12:34:33.750Z,21.80
2018-05-27T12:37:00.051Z,22.00
2018-05-27T12:39:26.314Z,21.80
2018-05-27T12:41:52.723Z,19.80
2018-05-27T12:44:18.936Z,19.40
2018-05-27T12:46:45.264Z,19.10
2018-05-27T12:49:11.518Z,19.40
2018-05-27T12:51:37.930Z,18.10
2018-05-27T12:54:04.258Z,18.60
2018-05-27T12:56:30.549Z,17.90
2018-05-27T12:58:57.108Z,18.10
2018-05-27T13:01:23.488Z,16.90
2018-05-27T13:03:49.787Z,18.20
2018-05-27T13:06:16.163Z,17.20
2018-05-27T13:08:42.424Z,18.00
2018-05-27T13:11:08.713Z,17.60
2018-05-27T13:13:35.231Z,16.80
2018-05-27T13:16:01.927Z,17.00
2018-05-27T13:18:28.197Z,18.10
2018-05-27T13:20:54.462Z,17.80
2018-05-27T13:23:20.879Z,18.20
2018-05-27T13:25:47.201Z,17.80
2018-05-27T13:28:13.545Z,18.30
2018-05-27T13:30:39.817Z,17.00
2018-05-27T13:33:06.100Z,16.70
2018-05-27T13:35:32.364Z,16.90
2018-05-27T13:37:58.654Z,17.30
2018-05-27T13:40:25.157Z,16.60
2018-05-27T13:42:51.426Z,17.00
2018-05-27T13:45:17.842Z,18.70
2018-05-27T13:47:44.160Z,19.70
2018-05-27T13:50:10.417Z,20.40
2018-05-27T13:52:36.780Z,20.20
2018-05-27T13:55:03.102Z,20.80
2018-05-27T13:57:29.406Z,21.20
2018-05-27T13:59:55.689Z,23.30
2018-05-27T14:02:22.016Z,21.20
2018-05-27T14:04:48.436Z,21.20
2018-05-27T14:07:15.436Z,21.90
2018-05-27T14:09:41.878Z,21.80
2018-05-27T14:12:09.325Z,22.00
2018-05-27T14:14:35.803Z,24.20
2018-05-27T14:17:02.140Z,24.40
2018-05-27T14:19:28.410Z,28.20
2018-05-27T14:21:54.736Z,23.70
2018-05-27T14:24:21.115Z,23.20
2018-05-27T14:26:47.528Z,24.00
2018-05-27T14:29:13.827Z,23.30
2018-05-27T14:31:40.095Z,23.30
2018-05-27T14:34:06.395Z,25.30
2018-05-27T14:36:32.818Z,26.10
2018-05-27T14:38:59.116Z,27.00
2018-05-27T14:41:25.573Z,25.30
2018-05-27T14:43:53.056Z,24.70
2018-05-27T14:46:19.528Z,23.90
2018-05-27T14:48:46.047Z,24.80
2018-05-27T14:51:12.461Z,25.50
2018-05-27T14:53:39.094Z,25.60
2018-05-27T14:56:06.449Z,25.70
2018-05-27T14:58:32.879Z,25.70
2018-05-27T15:00:59.210Z,25.30
2018-05-27T15:03:25.700Z,25.30
2018-05-27T15:05:52.948Z,24.80
2018-05-27T15:08:19.690Z,24.80
2018-05-27T15:10:45.980Z,25.00
2018-05-27T15:13:12.303Z,25.60
2018-05-27T15:15:40.021Z,25.30
2018-05-27T15:18:06.868Z,25.30
2018-05-27T15:20:33.488Z,25.80
2018-05-27T15:22:59.815Z,26.30
2018-05-27T15:25:26.097Z,25.90
2018-05-27T15:27:52.428Z,25.90
2018-05-27T15:30:18.876Z,26.10
2018-05-27T15:35:18.682Z,26.30
2018-05-27T15:37:45.968Z,26.10
2018-05-27T15:40:13.725Z,25.50
2018-05-27T15:42:40.179Z,26.80
2018-05-27T15:45:06.680Z,28.10
2018-05-27T15:47:33.092Z,28.20
2018-05-27T15:50:07.330Z,28.30
2018-05-27T15:52:33.558Z,28.30
2018-05-27T15:54:59.814Z,28.30
2018-05-27T15:57:26.296Z,29.10
2018-05-27T15:59:52.760Z,29.60
2018-05-27T16:02:19.082Z,29.60
2018-05-27T16:04:46.371Z,35.70
2018-05-27T16:07:12.771Z,35.70
2018-05-27T16:09:39.887Z,34.80
2018-05-27T16:12:06.152Z,34.90
2018-05-27T16:14:32.531Z,32.50
2018-05-27T16:16:59.129Z,31.90
2018-05-27T16:19:25.499Z,32.10
2018-05-27T16:21:51.861Z,32.30
2018-05-27T16:24:18.449Z,34.50
2018-05-27T16:26:44.893Z,37.60
2018-05-27T16:29:11.195Z,34.80
2018-05-27T16:31:38.297Z,35.10
2018-05-27T16:34:04.938Z,34.20
2018-05-27T16:36:31.318Z,35.80
2018-05-27T16:38:57.708Z,39.60
2018-05-27T16:41:25.514Z,42.80
2018-05-27T16:43:52.056Z,44.70
2018-05-27T16:46:18.332Z,43.90
2018-05-27T16:48:44.636Z,39.90
2018-05-27T16:51:11.075Z,38.70
2018-05-27T16:53:37.443Z,42.80
2018-05-27T16:56:03.768Z,43.20
2018-05-27T16:58:30.191Z,42.80
2018-05-27T17:00:57.342Z,39.80
2018-05-27T17:03:24.361Z,42.50
2018-05-27T17:05:50.746Z,42.40
2018-05-27T17:08:21.099Z,40.70
2018-05-27T17:10:49.527Z,40.70
2018-05-27T17:13:19.000Z,38.40
2018-05-27T17:15:45.352Z,38.10
2018-05-27T17:18:11.598Z,39.20
2018-05-27T17:20:37.892Z,41.90
2018-05-27T17:23:04.173Z,42.50
2018-05-27T17:25:31.466Z,42.50
2018-05-27T17:28:01.821Z,42.50
2018-05-27T17:30:32.821Z,43.50
2018-05-27T17:33:02.274Z,43.20
2018-05-27T17:38:10.198Z,44.30
2018-05-27T17:40:43.803Z,44.10
2018-05-27T17:43:13.953Z,45.50
2018-05-27T17:45:44.449Z,45.90
2018-05-27T17:48:14.102Z,46.10
2018-05-27T17:50:44.440Z,46.40
2018-05-27T17:53:13.580Z,46.40
2018-05-27T17:55:44.277Z,47.00
2018-05-27T17:58:18.368Z,46.50
2018-05-27T18:06:30.561Z,47.60
2018-05-27T18:08:58.921Z,47.70
2018-05-27T18:11:28.957Z,47.60
2018-05-27T18:13:59.317Z,47.60
2018-05-27T18:16:28.679Z,47.90
2018-05-27T18:18:57.097Z,46.30
2018-05-27T18:21:27.469Z,46.30
2018-05-27T18:23:58.025Z,46.10
2018-05-27T18:26:27.885Z,46.20
2018-05-27T18:28:58.397Z,46.20
2018-05-27T18:31:27.790Z,47.80
2018-05-27T18:33:58.120Z,47.10
2018-05-27T18:36:26.145Z,46.10
2018-05-27T18:38:57.658Z,46.90
2018-05-27T18:41:28.134Z,46.10
2018-05-27T18:43:56.872Z,46.10
2018-05-27T18:46:27.598Z,47.20
2018-05-27T18:48:57.115Z,47.10
2018-05-27T18:51:28.668Z,46.70
2018-05-27T18:53:57.825Z,47.60
2018-05-27T18:56:26.834Z,48.10
2018-05-27T18:58:55.034Z,47.80
2018-05-27T19:01:27.513Z,47.50
2018-05-27T19:03:57.808Z,47.70
2018-05-27T19:06:28.813Z,47.80
2018-05-27T19:08:57.909Z,47.50
2018-05-27T19:11:27.492Z,47.80
2018-05-27T19:13:57.840Z,48.10
2018-05-27T19:16:27.431Z,48.70
2018-05-27T19:18:57.525Z,48.90
2018-05-27T19:24:28.232Z,50.30
2018-05-27T19:27:00.723Z,50.30
2018-05-27T19:29:30.346Z,49.80
2018-05-27T19:32:00.680Z,50.10
2018-05-27T19:34:30.233Z,49.90
2018-05-27T19:37:00.035Z,48.70
2018-05-27T19:39:31.090Z,48.70
2018-05-27T19:41:58.024Z,47.50
2018-05-27T19:44:27.230Z,47.00
2018-05-27T19:47:01.882Z,49.50
2018-05-27T19:49:29.704Z,49.70
2018-05-27T19:52:00.959Z,47.90
2018-05-27T19:54:29.271Z,47.90
2018-05-27T19:57:00.545Z,48.80
2018-05-27T19:59:30.821Z,48.60
2018-05-27T20:02:00.743Z,50.40
2018-05-27T20:04:30.210Z,49.40
2018-05-27T20:07:00.604Z,51.40
2018-05-27T20:09:31.199Z,50.30
2018-05-27T20:11:59.540Z,50.30
2018-05-27T20:14:29.959Z,51.90
2018-05-27T20:17:00.360Z,52.10
2018-05-27T20:19:33.432Z,52.10
2018-05-27T20:22:03.185Z,52.10
2018-05-27T20:24:32.678Z,52.10
2018-05-27T20:27:02.295Z,52.10
2018-05-27T20:29:32.606Z,52.20
2018-05-27T20:32:01.685Z,52.20
2018-05-27T20:34:34.251Z,52.20
2018-05-27T20:37:01.292Z,51.60
2018-05-27T20:39:33.908Z,51.60
2018-05-27T20:42:03.769Z,51.20
2018-05-27T20:44:33.244Z,52.90
2018-05-27T20:47:02.423Z,52.00
2018-05-27T20:49:28.907Z,52.10
2018-05-27T20:51:59.991Z,51.60
2018-05-27T20:54:33.015Z,50.90
2018-05-27T20:57:02.606Z,52.40
2018-05-27T20:59:32.344Z,53.10
2018-05-27T21:02:01.971Z,52.40
2018-05-27T21:04:32.757Z,52.00
2018-05-27T21:07:01.350Z,52.10
2018-05-27T21:09:27.701Z,51.80
2018-05-27T21:11:54.012Z,51.10
2018-05-27T21:16:57.385Z,50.50
2018-05-27T21:19:25.772Z,50.70
2018-05-27T21:21:52.764Z,49.60
2018-05-27T21:24:22.800Z,49.30
2018-05-27T21:26:49.421Z,48.50
2018-05-27T21:29:16.303Z,47.80
2018-05-27T21:31:43.184Z,47.00
2018-05-27T21:34:12.643Z,46.80
2018-05-27T21:36:39.097Z,46.40
2018-05-27T21:39:05.481Z,45.90
2018-05-27T21:41:31.817Z,44.80
2018-05-27T21:43:58.078Z,44.50
2018-05-27T21:46:24.306Z,43.80
2018-05-27T21:48:50.595Z,43.40
2018-05-27T21:51:17.451Z,43.40
2018-05-27T21:53:43.957Z,43.40
2018-05-27T21:56:15.882Z,42.70
2018-05-27T21:58:42.456Z,41.20
2018-05-27T22:01:09.768Z,41.90
2018-05-27T22:03:36.073Z,41.40
2018-05-27T22:06:02.326Z,41.30
2018-05-27T22:08:28.659Z,41.50
2018-05-27T22:10:59.654Z,41.10
2018-05-27T22:13:25.971Z,41.10
2018-05-27T22:15:56.390Z,40.70
2018-05-27T22:18:28.575Z,41.20
2018-05-27T22:21:03.120Z,41.20
2018-05-27T22:23:29.559Z,41.10
2018-05-27T22:25:55.981Z,41.00
2018-05-27T22:28:22.365Z,41.60
2018-05-27T22:30:50.958Z,41.20
2018-05-27T22:33:17.562Z,41.50
2018-05-27T22:35:44.176Z,41.70
2018-05-27T22:38:10.644Z,42.00
2018-05-27T22:40:36.983Z,42.00
2018-05-27T22:43:03.452Z,42.10
2018-05-27T22:45:29.749Z,42.20
2018-05-27T22:47:56.965Z,43.00
2018-05-27T22:50:23.389Z,42.90
2018-05-27T22:52:49.717Z,42.80
2018-05-27T22:55:16.957Z,42.70
2018-05-27T22:57:45.321Z,42.70
2018-05-27T23:00:11.848Z,42.70
2018-05-27T23:05:34.149Z,42.60
2018-05-27T23:08:04.663Z,42.60
2018-05-27T23:10:34.893Z,42.90
2018-05-27T23:13:01.242Z,42.60
2018-05-27T23:15:44.745Z,42.90
2018-05-27T23:18:11.074Z,43.40
2018-05-27T23:20:40.722Z,43.50
2018-05-27T23:23:07.114Z,43.70
2018-05-27T23:25:46.940Z,43.80
2018-05-27T23:28:17.661Z,44.10
2018-05-27T23:30:45.769Z,44.60
2018-05-27T23:33:15.547Z,44.60
2018-05-27T23:35:45.268Z,44.80
2018-05-27T23:38:15.025Z,45.30
2018-05-27T23:40:45.018Z,45.30
2018-05-27T23:43:14.185Z,45.60
2018-05-27T23:45:47.097Z,47.00
2018-05-27T23:48:17.505Z,46.50
2018-05-27T23:50:46.017Z,47.10
2018-05-27T23:56:05.504Z,47.70
2018-05-27T23:58:31.880Z,48.00
